sensor_id;sensor_type;location;lat;lon;timestamp;pressure;altitude;pressure_sealevel;temperature;humidity
5877;BME280;2964;42.144;24.730;2023-03-11T00:01:40;144593.97;;;12.12;100.00
5877;BME280;2964;42.144;24.730;2023-03-11T00:04:08;144538.66;;;11.90;100.00
5877;BME280;2964;42.144;24.730;2023-03-11T00:06:36;144648.06;;;12.34;98.55
5877;BME280;2964;42.144;24.730;2023-03-11T00:09:02;144558.75;;;11.98;100.00
5877;BME280;2964;42.144;24.730;2023-03-11T00:11:30;144607.81;;;12.18;99.29
5877;BME280;2964;42.144;24.730;2023-03-11T00:13:57;144581.38;;;12.07;99.64
5877;BME280;2964;42.144;24.730;2023-03-11T00:16:23;144546.16;;;11.93;100.00
5877;BME280;2964;42.144;24.730;2023-03-11T00:18:50;144611.59;;;12.20;99.28
5877;BME280;2964;42.144;24.730;2023-03-11T00:21:28;144549.94;;;11.94;100.00
5877;BME280;2964;42.144;24.730;2023-03-11T00:23:54;144582.63;;;12.08;100.00
5877;BME280;2964;42.144;24.730;2023-03-11T00:26:25;144507.16;;;11.77;100.00
5877;BME280;2964;42.144;24.730;2023-03-11T00:28:52;144507.16;;;11.77;100.00
5877;BME280;2964;42.144;24.730;2023-03-11T00:31:20;144528.50;;;11.86;100.00
5877;BME280;2964;42.144;24.730;2023-03-11T00:33:47;144531.03;;;11.87;99.96
5877;BME280;2964;42.144;24.730;2023-03-11T00:36:21;144519.72;;;11.82;99.90
5877;BME280;2964;42.144;24.730;2023-03-11T00:38:49;144505.88;;;11.76;100.00
5877;BME280;2964;42.144;24.730;2023-03-11T00:41:16;144566.31;;;12.01;100.00
5877;BME280;2964;42.144;24.730;2023-03-11T00:43:43;144558.75;;;11.98;99.05
5877;BME280;2964;42.144;24.730;2023-03-11T00:46:09;144497.06;;;11.73;100.00
5877;BME280;2964;42.144;24.730;2023-03-11T00:48:36;144599.00;;;12.14;99.13
5877;BME280;2964;42.144;24.730;2023-03-11T00:51:03;144551.19;;;11.95;98.98
5877;BME280;2964;42.144;24.730;2023-03-11T00:53:32;144490.81;;;11.70;100.00
5877;BME280;2964;42.144;24.730;2023-03-11T00:56:05;144497.06;;;11.73;100.00
5877;BME280;2964;42.144;24.730;2023-03-11T00:58:32;144469.41;;;11.62;100.00
5877;BME280;2964;42.144;24.730;2023-03-11T01:01:00;144443.00;;;11.51;100.00
5877;BME280;2964;42.144;24.730;2023-03-11T01:03:26;144505.88;;;11.76;100.00
5877;BME280;2964;42.144;24.730;2023-03-11T01:05:53;144562.53;;;12.00;100.00
5877;BME280;2964;42.144;24.730;2023-03-11T01:08:20;144562.53;;;12.00;99.58
5877;BME280;2964;42.144;24.730;2023-03-11T01:10:46;144499.59;;;11.74;100.00
5877;BME280;2964;42.144;24.730;2023-03-11T01:13:14;144479.53;;;11.66;100.00
5877;BME280;2964;42.144;24.730;2023-03-11T01:15:41;144505.88;;;11.76;100.00
5877;BME280;2964;42.144;24.730;2023-03-11T01:18:08;144453.09;;;11.55;100.00
5877;BME280;2964;42.144;24.730;2023-03-11T01:20:36;144438.00;;;11.49;100.00
5877;BME280;2964;42.144;24.730;2023-03-11T01:23:03;144450.56;;;11.54;100.00
5877;BME280;2964;42.144;24.730;2023-03-11T01:25:30;144469.41;;;11.62;100.00
5877;BME280;2964;42.144;24.730;2023-03-11T01:27:57;144436.75;;;11.48;100.00
5877;BME280;2964;42.144;24.730;2023-03-11T01:30:27;144470.72;;;11.62;100.00
5877;BME280;2964;42.144;24.730;2023-03-11T01:32:55;144362.63;;;11.18;100.00
5877;BME280;2964;42.144;24.730;2023-03-11T01:35:24;144411.63;;;11.38;100.00
5877;BME280;2964;42.144;24.730;2023-03-11T01:37:51;144456.88;;;11.56;100.00
5877;BME280;2964;42.144;24.730;2023-03-11T01:40:22;144434.25;;;11.47;100.00
5877;BME280;2964;42.144;24.730;2023-03-11T01:42:50;144443.00;;;11.51;100.00
5877;BME280;2964;42.144;24.730;2023-03-11T01:45:32;144527.28;;;11.85;100.00
5877;BME280;2964;42.144;24.730;2023-03-11T01:48:01;144492.06;;;11.71;100.00
5877;BME280;2964;42.144;24.730;2023-03-11T01:50:32;144449.34;;;11.53;100.00
5877;BME280;2964;42.144;24.730;2023-03-11T01:53:00;144434.25;;;11.47;100.00
5877;BME280;2964;42.144;24.730;2023-03-11T01:55:27;144509.66;;;11.78;100.00
5877;BME280;2964;42.144;24.730;2023-03-11T01:57:54;144531.03;;;11.87;100.00
5877;BME280;2964;42.144;24.730;2023-03-11T02:00:21;144471.97;;;11.63;100.00
5877;BME280;2964;42.144;24.730;2023-03-11T02:02:51;144566.31;;;12.01;100.00
5877;BME280;2964;42.144;24.730;2023-03-11T02:05:20;144597.75;;;12.14;100.00
5877;BME280;2964;42.144;24.730;2023-03-11T02:07:48;144518.47;;;11.82;100.00
5877;BME280;2964;42.144;24.730;2023-03-11T02:10:16;144495.84;;;11.72;100.00
5877;BME280;2964;42.144;24.730;2023-03-11T02:12:44;144405.31;;;11.35;100.00
5877;BME280;2964;42.144;24.730;2023-03-11T02:15:12;144430.50;;;11.46;100.00
5877;BME280;2964;42.144;24.730;2023-03-11T02:17:40;144422.94;;;11.43;100.00
5877;BME280;2964;42.144;24.730;2023-03-11T02:20:15;144382.72;;;11.26;100.00
5877;BME280;2964;42.144;24.730;2023-03-11T02:22:45;144391.50;;;11.30;100.00
5877;BME280;2964;42.144;24.730;2023-03-11T02:25:20;144390.25;;;11.29;100.00
5877;BME280;2964;42.144;24.730;2023-03-11T02:27:52;144321.13;;;11.01;100.00
5877;BME280;2964;42.144;24.730;2023-03-11T02:30:20;144248.25;;;10.71;100.00
5877;BME280;2964;42.144;24.730;2023-03-11T02:32:48;144334.97;;;11.07;100.00
5877;BME280;2964;42.144;24.730;2023-03-11T02:35:15;144262.06;;;10.77;100.00
5877;BME280;2964;42.144;24.730;2023-03-11T02:37:43;144309.81;;;10.96;100.00
5877;BME280;2964;42.144;24.730;2023-03-11T02:40:35;144284.69;;;10.86;100.00
5877;BME280;2964;42.144;24.730;2023-03-11T02:43:08;144336.22;;;11.07;100.00
5877;BME280;2964;42.144;24.730;2023-03-11T02:45:35;144334.97;;;11.07;100.00
5877;BME280;2964;42.144;24.730;2023-03-11T02:48:05;144309.81;;;10.96;100.00
5877;BME280;2964;42.144;24.730;2023-03-11T02:50:33;144322.41;;;11.01;100.00
5877;BME280;2964;42.144;24.730;2023-03-11T02:53:02;144318.63;;;11.00;100.00
5877;BME280;2964;42.144;24.730;2023-03-11T02:55:29;144299.78;;;10.92;100.00
5877;BME280;2964;42.144;24.730;2023-03-11T02:57:56;144340.00;;;11.09;100.00
5877;BME280;2964;42.144;24.730;2023-03-11T03:00:24;144341.25;;;11.09;100.00
5877;BME280;2964;42.144;24.730;2023-03-11T03:02:51;144385.25;;;11.27;100.00
5877;BME280;2964;42.144;24.730;2023-03-11T03:05:19;144327.44;;;11.04;100.00
5877;BME280;2964;42.144;24.730;2023-03-11T03:07:46;144324.88;;;11.02;100.00
5877;BME280;2964;42.144;24.730;2023-03-11T03:10:14;144404.09;;;11.35;100.00
5877;BME280;2964;42.144;24.730;2023-03-11T03:12:41;144370.13;;;11.21;100.00
5877;BME280;2964;42.144;24.730;2023-03-11T03:15:08;144366.41;;;11.19;100.00
5877;BME280;2964;42.144;24.730;2023-03-11T03:17:37;144372.66;;;11.22;100.00
5877;BME280;2964;42.144;24.730;2023-03-11T03:20:05;144329.91;;;11.05;100.00
5877;BME280;2964;42.144;24.730;2023-03-11T03:22:35;144340.00;;;11.09;100.00
5877;BME280;2964;42.144;24.730;2023-03-11T03:25:02;144355.06;;;11.15;100.00
5877;BME280;2964;42.144;24.730;2023-03-11T03:27:29;144417.91;;;11.40;100.00
5877;BME280;2964;42.144;24.730;2023-03-11T03:29:56;144451.81;;;11.54;100.00
5877;BME280;2964;42.144;24.730;2023-03-11T03:32:23;144435.50;;;11.48;100.00
5877;BME280;2964;42.144;24.730;2023-03-11T03:34:51;144402.84;;;11.34;100.00
5877;BME280;2964;42.144;24.730;2023-03-11T03:37:22;144377.69;;;11.24;100.00
5877;BME280;2964;42.144;24.730;2023-03-11T03:39:49;144415.38;;;11.39;100.00
5877;BME280;2964;42.144;24.730;2023-03-11T03:42:16;144373.91;;;11.23;100.00
5877;BME280;2964;42.144;24.730;2023-03-11T03:44:43;144316.09;;;10.99;100.00
5877;BME280;2964;42.144;24.730;2023-03-11T03:47:10;144317.38;;;10.99;100.00
5877;BME280;2964;42.144;24.730;2023-03-11T03:49:37;144272.16;;;10.81;100.00
5877;BME280;2964;42.144;24.730;2023-03-11T03:52:05;144298.50;;;10.92;100.00
5877;BME280;2964;42.144;24.730;2023-03-11T03:54:33;144280.94;;;10.85;100.00
5877;BME280;2964;42.144;24.730;2023-03-11T03:56:59;144326.19;;;11.03;100.00
5877;BME280;2964;42.144;24.730;2023-03-11T03:59:26;144279.66;;;10.84;100.00
5877;BME280;2964;42.144;24.730;2023-03-11T04:01:53;144346.25;;;11.11;100.00
5877;BME280;2964;42.144;24.730;2023-03-11T04:04:20;144362.63;;;11.18;100.00
5877;BME280;2964;42.144;24.730;2023-03-11T04:06:47;144370.13;;;11.21;100.00
5877;BME280;2964;42.144;24.730;2023-03-11T04:09:15;144401.56;;;11.34;100.00
5877;BME280;2964;42.144;24.730;2023-03-11T04:11:41;144322.41;;;11.01;100.00
5877;BME280;2964;42.144;24.730;2023-03-11T04:14:08;144385.25;;;11.27;100.00
5877;BME280;2964;42.144;24.730;2023-03-11T04:16:35;144422.94;;;11.43;100.00
5877;BME280;2964;42.144;24.730;2023-03-11T04:19:02;144460.63;;;11.58;100.00
5877;BME280;2964;42.144;24.730;2023-03-11T04:21:30;144515.97;;;11.81;100.00
5877;BME280;2964;42.144;24.730;2023-03-11T04:23:57;144473.19;;;11.63;100.00
5877;BME280;2964;42.144;24.730;2023-03-11T04:26:25;144438.00;;;11.49;100.00
5877;BME280;2964;42.144;24.730;2023-03-11T04:28:52;144357.59;;;11.16;100.00
5877;BME280;2964;42.144;24.730;2023-03-11T04:31:19;144292.22;;;10.89;100.00
5877;BME280;2964;42.144;24.730;2023-03-11T04:33:46;144316.09;;;10.99;100.00
5877;BME280;2964;42.144;24.730;2023-03-11T04:36:13;144347.50;;;11.12;100.00
5877;BME280;2964;42.144;24.730;2023-03-11T04:38:39;144351.28;;;11.13;100.00
5877;BME280;2964;42.144;24.730;2023-03-11T04:41:06;144265.84;;;10.78;100.00
5877;BME280;2964;42.144;24.730;2023-03-11T04:43:34;144299.78;;;10.92;100.00
5877;BME280;2964;42.144;24.730;2023-03-11T04:46:01;144269.63;;;10.80;100.00
5877;BME280;2964;42.144;24.730;2023-03-11T04:48:28;144287.22;;;10.87;100.00
5877;BME280;2964;42.144;24.730;2023-03-11T04:50:55;144285.97;;;10.87;100.00
5877;BME280;2964;42.144;24.730;2023-03-11T04:53:21;144288.47;;;10.88;100.00
5877;BME280;2964;42.144;24.730;2023-03-11T04:55:48;144370.13;;;11.21;100.00
5877;BME280;2964;42.144;24.730;2023-03-11T04:58:15;144356.31;;;11.15;100.00
5877;BME280;2964;42.144;24.730;2023-03-11T05:00:43;144328.66;;;11.04;100.00
5877;BME280;2964;42.144;24.730;2023-03-11T05:03:10;144321.13;;;11.01;100.00
5877;BME280;2964;42.144;24.730;2023-03-11T05:05:36;144341.25;;;11.09;100.00
5877;BME280;2964;42.144;24.730;2023-03-11T05:08:03;144360.09;;;11.17;100.00
5877;BME280;2964;42.144;24.730;2023-03-11T05:10:30;144372.66;;;11.22;100.00
5877;BME280;2964;42.144;24.730;2023-03-11T05:12:57;144352.53;;;11.14;100.00
5877;BME280;2964;42.144;24.730;2023-03-11T05:15:24;144395.28;;;11.31;100.00
5877;BME280;2964;42.144;24.730;2023-03-11T05:17:52;144265.84;;;10.78;100.00
5877;BME280;2964;42.144;24.730;2023-03-11T05:20:19;144436.75;;;11.48;100.00
5877;BME280;2964;42.144;24.730;2023-03-11T05:22:45;144422.94;;;11.43;100.00
5877;BME280;2964;42.144;24.730;2023-03-11T05:25:12;144440.53;;;11.50;100.00
5877;BME280;2964;42.144;24.730;2023-03-11T05:27:39;144492.06;;;11.71;100.00
5877;BME280;2964;42.144;24.730;2023-03-11T05:30:08;144607.81;;;12.18;99.89
5877;BME280;2964;42.144;24.730;2023-03-11T05:32:35;144523.50;;;11.84;100.00
5877;BME280;2964;42.144;24.730;2023-03-11T05:35:04;144518.47;;;11.82;100.00
5877;BME280;2964;42.144;24.730;2023-03-11T05:37:31;144573.81;;;12.04;100.00
5877;BME280;2964;42.144;24.730;2023-03-11T05:39:58;144537.31;;;11.89;100.00
5877;BME280;2964;42.144;24.730;2023-03-11T05:42:24;144576.38;;;12.05;99.59
5877;BME280;2964;42.144;24.730;2023-03-11T05:44:51;144606.56;;;12.18;99.04
5877;BME280;2964;42.144;24.730;2023-03-11T05:47:18;144678.25;;;12.47;97.97
5877;BME280;2964;42.144;24.730;2023-03-11T05:49:46;144661.88;;;12.40;98.71
5877;BME280;2964;42.144;24.730;2023-03-11T05:52:14;144699.63;;;12.55;97.10
5877;BME280;2964;42.144;24.730;2023-03-11T05:54:41;144718.47;;;12.63;97.30
5877;BME280;2964;42.144;24.730;2023-03-11T05:57:08;144737.38;;;12.71;96.74
5877;BME280;2964;42.144;24.730;2023-03-11T05:59:34;144821.66;;;13.05;96.00
5877;BME280;2964;42.144;24.730;2023-03-11T06:02:02;144755.00;;;12.78;97.01
5877;BME280;2964;42.144;24.730;2023-03-11T06:04:29;144830.47;;;13.09;95.67
5877;BME280;2964;42.144;24.730;2023-03-11T06:06:55;144941.31;;;13.54;93.82
5877;BME280;2964;42.144;24.730;2023-03-11T06:09:23;144943.81;;;13.55;93.58
5877;BME280;2964;42.144;24.730;2023-03-11T06:11:50;144971.50;;;13.66;92.94
5877;BME280;2964;42.144;24.730;2023-03-11T06:14:17;144976.59;;;13.68;92.89
5877;BME280;2964;42.144;24.730;2023-03-11T06:16:44;145013.09;;;13.83;92.39
5877;BME280;2964;42.144;24.730;2023-03-11T06:19:11;145058.44;;;14.02;92.09
5877;BME280;2964;42.144;24.730;2023-03-11T06:21:38;145094.97;;;14.17;91.71
5877;BME280;2964;42.144;24.730;2023-03-11T06:24:05;145137.78;;;14.34;90.60
5877;BME280;2964;42.144;24.730;2023-03-11T06:26:33;145197.03;;;14.58;89.57
5877;BME280;2964;42.144;24.730;2023-03-11T06:28:59;145179.34;;;14.51;89.05
5877;BME280;2964;42.144;24.730;2023-03-11T06:31:27;145000.50;;;13.78;90.26
5877;BME280;2964;42.144;24.730;2023-03-11T06:33:54;145142.81;;;14.36;90.24
5877;BME280;2964;42.144;24.730;2023-03-11T06:36:24;145176.84;;;14.50;90.30
5877;BME280;2964;42.144;24.730;2023-03-11T06:38:51;145127.72;;;14.30;90.91
5877;BME280;2964;42.144;24.730;2023-03-11T06:41:19;145097.47;;;14.18;92.33
5877;BME280;2964;42.144;24.730;2023-03-11T06:43:47;145102.50;;;14.20;91.71
5877;BME280;2964;42.144;24.730;2023-03-11T06:46:16;145074.78;;;14.08;91.07
5877;BME280;2964;42.144;24.730;2023-03-11T06:48:44;145137.78;;;14.34;90.86
5877;BME280;2964;42.144;24.730;2023-03-11T06:51:11;145140.31;;;14.35;89.15
5877;BME280;2964;42.144;24.730;2023-03-11T06:53:38;145152.88;;;14.40;89.39
5877;BME280;2964;42.144;24.730;2023-03-11T06:56:07;145183.13;;;14.53;89.41
5877;BME280;2964;42.144;24.730;2023-03-11T06:58:35;145229.78;;;14.72;88.04
5877;BME280;2964;42.144;24.730;2023-03-11T07:01:09;145239.91;;;14.76;86.50
5877;BME280;2964;42.144;24.730;2023-03-11T07:03:36;145271.41;;;14.89;85.88
5877;BME280;2964;42.144;24.730;2023-03-11T07:06:03;145287.78;;;14.95;84.90
5877;BME280;2964;42.144;24.730;2023-03-11T07:08:30;145238.59;;;14.75;84.85
5877;BME280;2964;42.144;24.730;2023-03-11T07:11:03;145294.09;;;14.98;83.47
5877;BME280;2964;42.144;24.730;2023-03-11T07:13:30;145309.22;;;15.04;83.89
5877;BME280;2964;42.144;24.730;2023-03-11T07:16:01;145352.03;;;15.21;83.40
5877;BME280;2964;42.144;24.730;2023-03-11T07:18:30;145473.09;;;15.71;83.09
5877;BME280;2964;42.144;24.730;2023-03-11T07:20:57;145652.28;;;16.44;79.88
5877;BME280;2964;42.144;24.730;2023-03-11T07:23:24;145856.81;;;17.27;77.49
5877;BME280;2964;42.144;24.730;2023-03-11T07:25:51;145913.63;;;17.50;75.99
5877;BME280;2964;42.144;24.730;2023-03-11T07:28:19;145957.81;;;17.68;73.64
5877;BME280;2964;42.144;24.730;2023-03-11T07:30:47;145875.75;;;17.34;74.07
5877;BME280;2964;42.144;24.730;2023-03-11T07:33:14;145957.81;;;17.68;73.12
5877;BME280;2964;42.144;24.730;2023-03-11T07:35:42;146098.09;;;18.25;71.54
5877;BME280;2964;42.144;24.730;2023-03-11T07:38:09;146099.34;;;18.25;70.12
5877;BME280;2964;42.144;24.730;2023-03-11T07:40:36;146013.44;;;17.90;70.67
5877;BME280;2964;42.144;24.730;2023-03-11T07:43:02;146043.75;;;18.03;70.61
5877;BME280;2964;42.144;24.730;2023-03-11T07:45:29;146003.34;;;17.86;71.03
5877;BME280;2964;42.144;24.730;2023-03-11T07:47:56;145971.72;;;17.73;71.89
5877;BME280;2964;42.144;24.730;2023-03-11T07:50:22;146000.78;;;17.85;71.99
5877;BME280;2964;42.144;24.730;2023-03-11T07:52:50;145993.19;;;17.82;73.43
5877;BME280;2964;42.144;24.730;2023-03-11T07:55:17;146128.44;;;18.37;71.95
5877;BME280;2964;42.144;24.730;2023-03-11T07:57:46;146149.88;;;18.46;70.35
5877;BME280;2964;42.144;24.730;2023-03-11T08:00:16;146051.38;;;18.06;71.48
5877;BME280;2964;42.144;24.730;2023-03-11T08:02:43;145989.41;;;17.81;72.98
5877;BME280;2964;42.144;24.730;2023-03-11T08:05:10;146124.63;;;18.36;70.03
5877;BME280;2964;42.144;24.730;2023-03-11T08:07:37;146258.63;;;18.90;68.22
5877;BME280;2964;42.144;24.730;2023-03-11T08:10:06;146304.13;;;19.08;66.98
5877;BME280;2964;42.144;24.730;2023-03-11T08:12:33;146312.97;;;19.12;65.71
5877;BME280;2964;42.144;24.730;2023-03-11T08:14:59;146414.19;;;19.53;62.70
5877;BME280;2964;42.144;24.730;2023-03-11T08:17:26;146386.31;;;19.42;61.19
5877;BME280;2964;42.144;24.730;2023-03-11T08:19:53;146549.53;;;20.08;60.76
5877;BME280;2964;42.144;24.730;2023-03-11T08:22:19;146312.97;;;19.12;61.11
5877;BME280;2964;42.144;24.730;2023-03-11T08:24:50;146271.28;;;18.95;62.49
5877;BME280;2964;42.144;24.730;2023-03-11T08:27:18;146309.19;;;19.10;63.79
5877;BME280;2964;42.144;24.730;2023-03-11T08:29:45;146267.47;;;18.94;63.41
5877;BME280;2964;42.144;24.730;2023-03-11T08:32:12;146167.56;;;18.53;63.78
5877;BME280;2964;42.144;24.730;2023-03-11T08:34:38;146307.94;;;19.10;62.69
5877;BME280;2964;42.144;24.730;2023-03-11T08:37:05;146053.88;;;18.07;63.85
5877;BME280;2964;42.144;24.730;2023-03-11T08:39:32;146306.69;;;19.09;62.39
5877;BME280;2964;42.144;24.730;2023-03-11T08:41:59;146331.94;;;19.20;62.21
5877;BME280;2964;42.144;24.730;2023-03-11T08:44:27;146228.28;;;18.78;62.61
5877;BME280;2964;42.144;24.730;2023-03-11T08:46:53;146295.28;;;19.05;61.45
5877;BME280;2964;42.144;24.730;2023-03-11T08:49:20;146460.97;;;19.72;58.75
5877;BME280;2964;42.144;24.730;2023-03-11T08:51:47;146468.56;;;19.75;58.27
5877;BME280;2964;42.144;24.730;2023-03-11T08:54:13;146443.25;;;19.65;58.21
5877;BME280;2964;42.144;24.730;2023-03-11T08:56:40;146415.44;;;19.54;59.73
5877;BME280;2964;42.144;24.730;2023-03-11T08:59:07;146238.41;;;18.82;60.42
5877;BME280;2964;42.144;24.730;2023-03-11T09:01:35;146258.63;;;18.90;60.93
5877;BME280;2964;42.144;24.730;2023-03-11T09:04:02;146232.03;;;18.79;61.34
5877;BME280;2964;42.144;24.730;2023-03-11T09:06:28;146291.53;;;19.03;60.45
5877;BME280;2964;42.144;24.730;2023-03-11T09:08:55;146287.72;;;19.02;60.17
5877;BME280;2964;42.144;24.730;2023-03-11T09:11:22;146362.31;;;19.32;59.47
5877;BME280;2964;42.144;24.730;2023-03-11T09:13:49;146254.81;;;18.88;60.41
5877;BME280;2964;42.144;24.730;2023-03-11T09:16:18;146320.59;;;19.15;59.83
5877;BME280;2964;42.144;24.730;2023-03-11T09:18:46;146264.97;;;18.93;60.15
5877;BME280;2964;42.144;24.730;2023-03-11T09:21:13;146276.31;;;18.97;59.28
5877;BME280;2964;42.144;24.730;2023-03-11T09:23:40;146361.06;;;19.32;59.40
5877;BME280;2964;42.144;24.730;2023-03-11T09:26:07;146292.78;;;19.04;60.02
5877;BME280;2964;42.144;24.730;2023-03-11T09:28:33;146454.59;;;19.70;57.71
5877;BME280;2964;42.144;24.730;2023-03-11T09:31:00;146344.59;;;19.25;58.46
5877;BME280;2964;42.144;24.730;2023-03-11T09:33:27;146134.72;;;18.40;58.77
5877;BME280;2964;42.144;24.730;2023-03-11T09:35:56;146266.22;;;18.93;58.55
5877;BME280;2964;42.144;24.730;2023-03-11T09:38:22;146226.97;;;18.77;58.93
5877;BME280;2964;42.144;24.730;2023-03-11T09:40:57;146101.91;;;18.26;61.31
5877;BME280;2964;42.144;24.730;2023-03-11T09:43:34;146209.28;;;18.70;61.25
5877;BME280;2964;42.144;24.730;2023-03-11T09:46:20;146562.19;;;20.13;58.49
5877;BME280;2964;42.144;24.730;2023-03-11T09:48:54;147390.78;;;23.49;49.97
5877;BME280;2964;42.144;24.730;2023-03-11T09:51:28;147428.81;;;23.64;45.78
5877;BME280;2964;42.144;24.730;2023-03-11T09:54:02;147385.72;;;23.47;44.90
5877;BME280;2964;42.144;24.730;2023-03-11T09:56:30;147407.28;;;23.56;44.85
5877;BME280;2964;42.144;24.730;2023-03-11T09:59:02;147120.72;;;22.40;46.81
5877;BME280;2964;42.144;24.730;2023-03-11T10:01:32;146883.75;;;21.44;47.52
5877;BME280;2964;42.144;24.730;2023-03-11T10:04:03;147077.59;;;22.22;46.80
5877;BME280;2964;42.144;24.730;2023-03-11T10:06:35;147537.94;;;24.08;42.68
5877;BME280;2964;42.144;24.730;2023-03-11T10:09:13;147616.63;;;24.40;38.62
5877;BME280;2964;42.144;24.730;2023-03-11T10:11:52;147765.16;;;25.00;37.62
5877;BME280;2964;42.144;24.730;2023-03-11T10:14:53;147803.25;;;25.16;35.68
5877;BME280;2964;42.144;24.730;2023-03-11T10:17:35;147236.06;;;22.86;38.28
5877;BME280;2964;42.144;24.730;2023-03-11T10:20:09;146848.28;;;21.29;41.54
5877;BME280;2964;42.144;24.730;2023-03-11T10:22:46;146559.69;;;20.12;43.79
5877;BME280;2964;42.144;24.730;2023-03-11T10:25:20;146422.97;;;19.57;45.65
5877;BME280;2964;42.144;24.730;2023-03-11T10:27:53;146443.25;;;19.65;45.21
5877;BME280;2964;42.144;24.730;2023-03-11T10:30:25;146488.81;;;19.83;44.97
5877;BME280;2964;42.144;24.730;2023-03-11T10:32:57;146620.41;;;20.37;44.02
5877;BME280;2964;42.144;24.730;2023-03-11T10:35:31;146482.53;;;19.81;44.70
5877;BME280;2964;42.144;24.730;2023-03-11T10:38:06;146358.50;;;19.31;45.82
5877;BME280;2964;42.144;24.730;2023-03-11T10:40:39;146326.88;;;19.18;46.42
5877;BME280;2964;42.144;24.730;2023-03-11T10:43:12;146292.78;;;19.04;46.87
5877;BME280;2964;42.144;24.730;2023-03-11T10:45:41;146276.31;;;18.97;46.29
5877;BME280;2964;42.144;24.730;2023-03-11T10:48:10;146320.59;;;19.15;45.62
5877;BME280;2964;42.144;24.730;2023-03-11T10:50:44;146294.03;;;19.04;45.57
5877;BME280;2964;42.144;24.730;2023-03-11T10:53:15;146282.69;;;19.00;46.00
5877;BME280;2964;42.144;24.730;2023-03-11T10:55:45;146282.69;;;19.00;47.48
5877;BME280;2964;42.144;24.730;2023-03-11T10:58:15;146299.09;;;19.06;45.47
5877;BME280;2964;42.144;24.730;2023-03-11T11:00:41;146271.28;;;18.95;46.29
5877;BME280;2964;42.144;24.730;2023-03-11T11:03:17;146247.28;;;18.85;45.42
5877;BME280;2964;42.144;24.730;2023-03-11T11:05:56;146239.66;;;18.82;45.69
5877;BME280;2964;42.144;24.730;2023-03-11T11:08:24;146283.94;;;19.00;45.60
5877;BME280;2964;42.144;24.730;2023-03-11T11:10:52;146331.94;;;19.20;44.52
5877;BME280;2964;42.144;24.730;2023-03-11T11:13:21;146320.59;;;19.15;44.10
5877;BME280;2964;42.144;24.730;2023-03-11T11:15:54;146428.09;;;19.59;43.40
5877;BME280;2964;42.144;24.730;2023-03-11T11:18:24;146401.53;;;19.48;44.43
5877;BME280;2964;42.144;24.730;2023-03-11T11:20:56;146433.13;;;19.61;43.64
5877;BME280;2964;42.144;24.730;2023-03-11T11:23:30;146439.44;;;19.63;43.52
5877;BME280;2964;42.144;24.730;2023-03-11T11:25:59;146477.41;;;19.79;43.35
5877;BME280;2964;42.144;24.730;2023-03-11T11:28:29;146455.91;;;19.70;42.59
5877;BME280;2964;42.144;24.730;2023-03-11T11:30:57;146377.47;;;19.38;42.66
5877;BME280;2964;42.144;24.730;2023-03-11T11:33:27;146329.44;;;19.19;42.72
5877;BME280;2964;42.144;24.730;2023-03-11T11:35:55;146352.19;;;19.28;43.24
5877;BME280;2964;42.144;24.730;2023-03-11T11:38:24;146361.06;;;19.32;42.86
5877;BME280;2964;42.144;24.730;2023-03-11T11:40:54;146325.63;;;19.17;42.65
5877;BME280;2964;42.144;24.730;2023-03-11T11:43:27;146324.38;;;19.17;43.04
5877;BME280;2964;42.144;24.730;2023-03-11T11:46:01;146387.63;;;19.42;41.76
5877;BME280;2964;42.144;24.730;2023-03-11T11:48:38;146383.81;;;19.41;42.64
5877;BME280;2964;42.144;24.730;2023-03-11T11:51:14;146371.16;;;19.36;39.76
5877;BME280;2964;42.144;24.730;2023-03-11T11:53:45;146352.19;;;19.28;37.46
5877;BME280;2964;42.144;24.730;2023-03-11T11:56:16;146191.63;;;18.63;38.58
5877;BME280;2964;42.144;24.730;2023-03-11T11:58:44;146344.59;;;19.25;38.58
5877;BME280;2964;42.144;24.730;2023-03-11T12:01:14;146350.94;;;19.27;38.18
5877;BME280;2964;42.144;24.730;2023-03-11T12:03:56;146349.66;;;19.27;38.22
5877;BME280;2964;42.144;24.730;2023-03-11T12:06:30;146251.06;;;18.87;38.54
5877;BME280;2964;42.144;24.730;2023-03-11T12:09:05;146334.50;;;19.21;38.95
5877;BME280;2964;42.144;24.730;2023-03-11T12:11:43;146326.88;;;19.18;38.91
5877;BME280;2964;42.144;24.730;2023-03-11T12:14:19;146357.25;;;19.30;39.01
5877;BME280;2964;42.144;24.730;2023-03-11T12:16:52;146388.88;;;19.43;39.42
5877;BME280;2964;42.144;24.730;2023-03-11T12:19:31;146438.19;;;19.63;39.55
5877;BME280;2964;42.144;24.730;2023-03-11T12:22:27;146431.84;;;19.60;39.03
5877;BME280;2964;42.144;24.730;2023-03-11T12:25:34;146412.88;;;19.53;38.19
5877;BME280;2964;42.144;24.730;2023-03-11T12:28:15;146374.97;;;19.37;38.30
5877;BME280;2964;42.144;24.730;2023-03-11T12:30:46;146359.78;;;19.31;38.66
5877;BME280;2964;42.144;24.730;2023-03-11T12:33:28;146397.72;;;19.46;39.20
5877;BME280;2964;42.144;24.730;2023-03-11T12:35:57;146435.63;;;19.62;37.75
5877;BME280;2964;42.144;24.730;2023-03-11T12:38:29;146406.56;;;19.50;38.63
5877;BME280;2964;42.144;24.730;2023-03-11T12:41:03;146402.78;;;19.48;39.38
5877;BME280;2964;42.144;24.730;2023-03-11T12:47:12;146393.91;;;19.45;39.26
5877;BME280;2964;42.144;24.730;2023-03-11T12:49:44;146387.63;;;19.42;39.03
5877;BME280;2964;42.144;24.730;2023-03-11T12:52:28;146350.94;;;19.27;39.29
5877;BME280;2964;42.144;24.730;2023-03-11T13:01:02;146275.06;;;18.97;42.60
5877;BME280;2964;42.144;24.730;2023-03-11T13:03:41;146276.31;;;18.97;43.34
5877;BME280;2964;42.144;24.730;2023-03-11T13:06:19;146296.56;;;19.05;43.68
5877;BME280;2964;42.144;24.730;2023-03-11T13:08:49;146277.56;;;18.98;43.92
5877;BME280;2964;42.144;24.730;2023-03-11T13:11:32;146314.28;;;19.13;43.37
5877;BME280;2964;42.144;24.730;2023-03-11T13:14:28;146378.75;;;19.39;43.11
5877;BME280;2964;42.144;24.730;2023-03-11T13:16:56;146338.28;;;19.22;42.25